createdAt,value
2022-08-17T00:01:52.031Z,100089.28
2022-08-17T00:04:23.022Z,100092.00
2022-08-17T00:06:50.967Z,100096.78
2022-08-17T00:09:19.553Z,100093.03
2022-08-17T00:12:34.727Z,100089.53
2022-08-17T00:14:37.941Z,100089.41
2022-08-17T00:17:07.052Z,100089.41
2022-08-17T00:19:36.290Z,100075.34
2022-08-17T00:22:31.567Z,100088.97
2022-08-17T00:24:54.627Z,100078.91
2022-08-17T00:27:22.517Z,100082.22
2022-08-17T00:29:50.404Z,100072.47
2022-08-17T00:33:14.143Z,100085.38
2022-08-17T00:35:12.455Z,100084.75
2022-08-17T00:37:40.325Z,100089.94
2022-08-17T00:40:11.017Z,100079.38
2022-08-17T00:42:39.417Z,100080.56
2022-08-17T00:45:09.811Z,100080.09
2022-08-17T00:47:37.691Z,100072.59
2022-08-17T00:50:09.867Z,100075.28
2022-08-17T00:52:44.472Z,100069.88
2022-08-17T00:55:12.794Z,100065.53
2022-08-17T00:57:46.147Z,100061.78
2022-08-17T01:00:17.529Z,100065.53
2022-08-17T01:02:48.047Z,100052.84
2022-08-17T01:05:20.631Z,100059.81
2022-08-17T01:07:50.759Z,100054.66
2022-08-17T01:10:58.842Z,100059.81
2022-08-17T01:13:12.168Z,100062.38
2022-08-17T01:15:46.178Z,100065.28
2022-08-17T01:18:17.960Z,100061.41
2022-08-17T01:20:51.061Z,100060.47
2022-08-17T01:23:23.446Z,100068.19
2022-08-17T01:25:53.314Z,100068.84
2022-08-17T01:28:52.598Z,100068.25
2022-08-17T01:31:10.482Z,100070.00
2022-08-17T01:33:38.385Z,100069.41
2022-08-17T01:36:08.098Z,100072.31
2022-08-17T01:38:38.135Z,100066.91
2022-08-17T01:41:11.222Z,100065.34
2022-08-17T01:43:43.554Z,100062.19
2022-08-17T01:46:17.699Z,100068.03
2022-08-17T01:48:47.464Z,100068.19
2022-08-17T01:51:16.603Z,100066.53
2022-08-17T01:53:49.083Z,100072.38
2022-08-17T01:56:19.355Z,100070.38
2022-08-17T01:58:47.916Z,100077.75
2022-08-17T02:01:18.912Z,100076.94
2022-08-17T02:03:59.488Z,100070.72
2022-08-17T02:06:32.824Z,100075.78
2022-08-17T02:09:16.876Z,100079.50
2022-08-17T02:11:46.228Z,100082.44
2022-08-17T02:14:14.931Z,100074.56
2022-08-17T02:16:43.729Z,100076.28
2022-08-17T02:19:16.994Z,100069.03
2022-08-17T02:21:47.833Z,100078.63
2022-08-17T02:24:58.990Z,100067.75
2022-08-17T02:27:09.460Z,100076.00
2022-08-17T02:29:37.297Z,100068.38
2022-08-17T02:32:05.913Z,100070.25
2022-08-17T02:34:34.144Z,100062.91
2022-08-17T02:37:01.973Z,100070.56
2022-08-17T02:39:31.446Z,100063.50
2022-08-17T02:42:02.562Z,100061.50
2022-08-17T02:44:39.379Z,100063.13
2022-08-17T02:47:09.335Z,100070.63
2022-08-17T02:49:37.305Z,100062.84
2022-08-17T02:52:07.058Z,100060.16
2022-08-17T02:54:39.693Z,100065.06
2022-08-17T02:57:08.886Z,100060.97
2022-08-17T02:59:36.700Z,100060.59
2022-08-17T03:02:04.886Z,100058.94
2022-08-17T03:04:35.156Z,100051.16
2022-08-17T03:07:03.523Z,100056.09
2022-08-17T03:09:31.347Z,100044.16
2022-08-17T03:12:07.314Z,100057.13
2022-08-17T03:14:41.474Z,100049.28
2022-08-17T03:17:09.996Z,100052.41
2022-08-17T03:19:42.900Z,100053.25
2022-08-17T03:22:37.357Z,100060.31
2022-08-17T03:24:59.690Z,100055.09
2022-08-17T03:27:28.939Z,100049.94
2022-08-17T03:29:56.678Z,100056.38
2022-08-17T03:32:24.608Z,100052.84
2022-08-17T03:34:52.474Z,100055.75
2022-08-17T03:37:20.262Z,100059.50
2022-08-17T03:39:48.131Z,100053.50
2022-08-17T03:42:32.513Z,100027.56
2022-08-17T03:45:05.606Z,100012.97
2022-08-17T03:47:50.831Z,100051.88
2022-08-17T03:50:37.548Z,100038.84
2022-08-17T03:53:26.624Z,100052.47
2022-08-17T03:56:12.105Z,100020.00
2022-08-17T03:58:39.920Z,100061.38
2022-08-17T04:01:09.574Z,100069.81
2022-08-17T04:03:37.447Z,100067.13
2022-08-17T04:06:08.208Z,100061.97
2022-08-17T04:08:36.536Z,100070.28
2022-08-17T04:11:04.337Z,100058.44
2022-08-17T04:13:32.166Z,100062.19
2022-08-17T04:15:59.978Z,100068.63
2022-08-17T04:18:29.257Z,100076.47
2022-08-17T04:20:57.130Z,100068.63
2022-08-17T04:23:32.637Z,100082.69
2022-08-17T04:26:00.886Z,100092.63
2022-08-17T04:28:28.783Z,100084.28
2022-08-17T04:30:56.639Z,100084.88
2022-08-17T04:33:26.636Z,100062.34
2022-08-17T04:35:58.320Z,100077.78
2022-08-17T04:38:27.942Z,100068.94
2022-08-17T04:41:14.295Z,100079.44
2022-08-17T04:43:44.365Z,100074.66
2022-08-17T04:46:15.580Z,100078.53
2022-08-17T04:48:46.051Z,100081.22
2022-08-17T04:51:21.699Z,100037.19
2022-08-17T04:53:54.563Z,100086.63
2022-08-17T04:56:25.896Z,100089.91
2022-08-17T04:58:55.807Z,100087.81
2022-08-17T05:01:26.587Z,100087.38
2022-08-17T05:03:56.144Z,100076.75
2022-08-17T05:06:25.620Z,100098.16
2022-08-17T05:08:53.860Z,100074.66
2022-08-17T05:11:22.054Z,100085.28
2022-08-17T05:13:50.759Z,100044.97
2022-08-17T05:16:19.735Z,100085.44
2022-08-17T05:18:47.748Z,100083.81
2022-08-17T05:21:16.158Z,100089.09
2022-08-17T05:23:53.934Z,100083.94
2022-08-17T05:26:26.877Z,100069.28
2022-08-17T05:28:59.436Z,100083.88
2022-08-17T05:31:29.726Z,100064.41
2022-08-17T05:33:57.989Z,100079.31
2022-08-17T05:36:43.230Z,100058.72
2022-08-17T05:39:16.439Z,100079.91
2022-08-17T05:41:46.980Z,100075.56
2022-08-17T05:44:14.988Z,100077.44
2022-08-17T05:46:48.565Z,100079.31
2022-08-17T05:49:18.949Z,100074.19
2022-08-17T05:52:08.563Z,100091.13
2022-08-17T05:54:52.686Z,100067.03
2022-08-17T05:57:53.850Z,100072.03
2022-08-17T06:00:30.854Z,100077.22
2022-08-17T06:03:34.140Z,100084.59
2022-08-17T06:06:16.940Z,100086.25
2022-08-17T06:08:51.494Z,100099.50
2022-08-17T06:11:30.941Z,100118.97
2022-08-17T06:14:32.731Z,100109.75
2022-08-17T06:17:05.629Z,100123.91
2022-08-17T06:19:40.979Z,100124.72
2022-08-17T06:22:12.278Z,100137.53
2022-08-17T06:24:43.795Z,100098.44
2022-08-17T06:27:20.194Z,100140.47
2022-08-17T06:29:54.382Z,100147.34
2022-08-17T06:32:23.207Z,100122.41
2022-08-17T06:34:51.097Z,100124.94
2022-08-17T06:37:42.419Z,100108.72
2022-08-17T06:40:37.039Z,100120.66
2022-08-17T06:43:21.084Z,100143.44
2022-08-17T06:45:54.904Z,100102.88
2022-08-17T06:48:26.631Z,100157.22
2022-08-17T06:51:00.084Z,100145.31
2022-08-17T06:53:32.197Z,100163.59
2022-08-17T06:56:06.218Z,100148.31
2022-08-17T06:58:37.309Z,100161.63
2022-08-17T07:01:11.712Z,100164.47
2022-08-17T07:03:44.792Z,100166.72
2022-08-17T07:06:15.999Z,100162.38
2022-08-17T07:08:53.567Z,100172.28
2022-08-17T07:11:28.206Z,100178.84
2022-08-17T07:14:08.347Z,100169.47
2022-08-17T07:16:42.148Z,100141.19
2022-08-17T07:19:11.041Z,100161.31
2022-08-17T07:21:47.033Z,100161.69
2022-08-17T07:24:33.101Z,100122.06
2022-08-17T07:27:10.638Z,100157.00
2022-08-17T07:29:46.639Z,100161.13
2022-08-17T07:32:18.477Z,100159.00
2022-08-17T07:35:18.340Z,100151.38
2022-08-17T07:37:53.044Z,100172.19
2022-08-17T07:40:26.935Z,100160.38
2022-08-17T07:43:24.029Z,100199.56
2022-08-17T07:46:15.690Z,100139.69
2022-08-17T07:48:49.646Z,100209.31
2022-08-17T07:51:31.264Z,100213.28
2022-08-17T07:54:13.978Z,100212.00
2022-08-17T07:56:46.898Z,100206.22
2022-08-17T07:59:23.858Z,100221.63
2022-08-17T08:02:10.248Z,100202.03
2022-08-17T08:07:34.642Z,100225.41
2022-08-17T08:10:08.630Z,100217.31
2022-08-17T08:12:39.112Z,100216.72
2022-08-17T08:15:19.029Z,100213.44
2022-08-17T08:17:52.264Z,100221.06
2022-08-17T08:20:52.348Z,100198.06
2022-08-17T08:23:26.513Z,100213.28
2022-08-17T08:26:05.458Z,100218.22
2022-08-17T08:28:43.409Z,100207.13
2022-08-17T08:31:42.222Z,100231.72
2022-08-17T08:34:47.988Z,100233.22
2022-08-17T08:37:22.728Z,100233.44
2022-08-17T08:40:08.257Z,100233.88
2022-08-17T08:42:43.213Z,100196.97
2022-08-17T08:45:18.036Z,100220.38
2022-08-17T08:48:57.855Z,100223.06
2022-08-17T08:51:01.907Z,100221.69
2022-08-17T08:53:38.971Z,100147.56
2022-08-17T08:56:13.195Z,100172.28
2022-08-17T08:58:52.203Z,100219.06
2022-08-17T09:01:28.770Z,100223.41
2022-08-17T09:04:25.512Z,100236.06
2022-08-17T09:07:06.018Z,100238.78
2022-08-17T09:09:49.525Z,100220.22
2022-08-17T09:12:26.875Z,100199.38
2022-08-17T09:15:02.527Z,100236.22
2022-08-17T09:17:40.742Z,100242.66
2022-08-17T09:20:28.053Z,100177.81
2022-08-17T09:23:03.921Z,100232.56
2022-08-17T09:25:36.061Z,100244.53
2022-08-17T09:28:07.726Z,100242.06
2022-08-17T09:30:42.051Z,100245.00
2022-08-17T09:33:12.582Z,100214.28
2022-08-17T09:35:44.655Z,100235.03
2022-08-17T09:38:22.673Z,100244.63
2022-08-17T09:40:56.473Z,100250.00
2022-08-17T09:43:32.813Z,100258.81
2022-08-17T09:46:04.927Z,100258.00
2022-08-17T09:48:38.129Z,100236.53
2022-08-17T09:51:12.955Z,100254.69
2022-08-17T09:53:44.699Z,100260.31
2022-08-17T09:56:34.183Z,100263.66
2022-08-17T09:59:28.468Z,100261.56
2022-08-17T10:02:33.756Z,100256.03
2022-08-17T10:05:06.699Z,100258.44
2022-08-17T10:07:41.614Z,100247.50
2022-08-17T10:10:16.855Z,100259.31
2022-08-17T10:12:56.779Z,100251.22
2022-08-17T10:15:46.861Z,100258.06
2022-08-17T10:18:37.682Z,100240.91
2022-08-17T10:21:25.940Z,100229.38
2022-08-17T10:24:19.877Z,100225.25
2022-08-17T10:26:56.881Z,100225.78
2022-08-17T10:29:40.813Z,100214.53
2022-08-17T10:32:25.626Z,100202.25
2022-08-17T10:35:07.076Z,100211.53
2022-08-17T10:37:47.492Z,100214.38
2022-08-17T10:40:35.956Z,100216.38
2022-08-17T10:43:29.253Z,100221.56
2022-08-17T10:46:10.349Z,100234.00
2022-08-17T10:49:33.921Z,100230.41
2022-08-17T10:52:03.729Z,100245.88
2022-08-17T10:54:49.767Z,100240.88
2022-08-17T10:57:39.277Z,100249.56
2022-08-17T11:00:15.453Z,100251.59
2022-08-17T11:02:50.814Z,100255.72
2022-08-17T11:05:43.447Z,100262.13
2022-08-17T11:09:05.445Z,100266.72
2022-08-17T11:11:47.410Z,100263.00
2022-08-17T11:14:28.359Z,100260.31
2022-08-17T11:17:15.900Z,100255.31
2022-08-17T11:20:05.969Z,100253.56
2022-08-17T11:22:53.012Z,100257.00
2022-08-17T11:25:32.714Z,100262.34
2022-08-17T11:28:08.694Z,100257.31
2022-08-17T11:30:47.005Z,100279.91
2022-08-17T11:33:53.455Z,100272.00
2022-08-17T11:36:34.798Z,100270.75
2022-08-17T11:39:20.228Z,100263.91
2022-08-17T11:41:55.130Z,100259.72
2022-08-17T11:44:37.540Z,100263.97
2022-08-17T11:47:33.443Z,100250.25
2022-08-17T11:50:43.153Z,100258.31
2022-08-17T11:54:08.725Z,100250.50
2022-08-17T11:56:47.135Z,100243.53
2022-08-17T11:59:52.362Z,100256.88
2022-08-17T12:02:38.733Z,100259.91
2022-08-17T12:05:28.462Z,100259.78
2022-08-17T12:08:07.986Z,100258.78
2022-08-17T12:10:54.175Z,100254.56
2022-08-17T12:13:23.700Z,100255.53
2022-08-17T12:15:59.813Z,100264.72
2022-08-17T12:18:30.060Z,100260.56
2022-08-17T12:21:19.095Z,100265.34
2022-08-17T12:23:57.017Z,100267.69
2022-08-17T12:26:30.295Z,100266.63
2022-08-17T12:29:01.964Z,100269.44
2022-08-17T12:31:34.704Z,100264.66
2022-08-17T12:34:03.856Z,100263.03
2022-08-17T12:36:34.237Z,100271.50
2022-08-17T12:39:14.201Z,100272.34
2022-08-17T12:41:45.245Z,100269.63
2022-08-17T12:44:16.463Z,100276.00
2022-08-17T12:46:54.864Z,100278.09
2022-08-17T12:49:31.044Z,100281.34
2022-08-17T12:52:06.959Z,100279.03
2022-08-17T12:54:41.650Z,100281.91
2022-08-17T12:57:16.099Z,100273.28
2022-08-17T12:59:47.091Z,100268.56
2022-08-17T13:02:43.696Z,100268.91
2022-08-17T13:05:21.131Z,100271.63
2022-08-17T13:07:50.877Z,100275.50
2022-08-17T13:10:22.600Z,100271.88
2022-08-17T13:12:52.435Z,100271.41
2022-08-17T13:15:29.612Z,100268.78
2022-08-17T13:18:03.834Z,100264.69
2022-08-17T13:20:33.190Z,100260.38
2022-08-17T13:23:11.387Z,100273.81
2022-08-17T13:25:40.178Z,100264.72
2022-08-17T13:28:29.902Z,100274.34
2022-08-17T13:31:25.067Z,100272.16
2022-08-17T13:33:53.152Z,100259.22
2022-08-17T13:36:30.020Z,100263.84
2022-08-17T13:39:12.993Z,100259.78
2022-08-17T13:41:41.057Z,100276.66
2022-08-17T13:44:31.237Z,100269.22
2022-08-17T13:47:00.611Z,100273.38
2022-08-17T13:49:41.852Z,100270.41
2022-08-17T13:52:38.028Z,100274.72
2022-08-17T13:55:16.713Z,100273.81
2022-08-17T13:57:47.700Z,100270.34
2022-08-17T14:00:20.355Z,100267.81
2022-08-17T14:02:48.183Z,100266.75
2022-08-17T14:05:15.992Z,100271.97
2022-08-17T14:07:46.983Z,100267.88
2022-08-17T14:10:19.006Z,100274.81
2022-08-17T14:12:57.141Z,100271.81
2022-08-17T14:15:54.810Z,100271.06
2022-08-17T14:18:55.231Z,100268.19
2022-08-17T14:21:08.416Z,100266.75
2022-08-17T14:23:36.666Z,100253.78
2022-08-17T14:26:06.562Z,100257.00
2022-08-17T14:28:36.492Z,100257.16
2022-08-17T14:31:04.731Z,100263.81
2022-08-17T14:33:32.551Z,100256.78
2022-08-17T14:36:00.817Z,100243.97
2022-08-17T14:38:28.660Z,100252.69
2022-08-17T14:40:56.553Z,100251.75
2022-08-17T14:43:27.153Z,100241.59
2022-08-17T14:45:54.997Z,100244.69
2022-08-17T14:48:22.961Z,100242.81
2022-08-17T14:50:50.768Z,100240.81
2022-08-17T14:53:20.293Z,100232.97
2022-08-17T14:55:50.947Z,100235.09
2022-08-17T14:58:19.921Z,100229.09
2022-08-17T15:00:50.922Z,100240.44
2022-08-17T15:03:19.426Z,100231.09
2022-08-17T15:05:47.289Z,100235.16
2022-08-17T15:08:16.222Z,100224.91
2022-08-17T15:10:44.749Z,100238.78
2022-08-17T15:13:20.652Z,100235.50
2022-08-17T15:15:52.032Z,100225.31
2022-08-17T15:18:22.836Z,100219.19
2022-08-17T15:20:51.266Z,100213.88
2022-08-17T15:23:21.664Z,100219.63
2022-08-17T15:25:51.142Z,100210.09
2022-08-17T15:28:23.000Z,100216.72
2022-08-17T15:30:53.159Z,100221.22
2022-08-17T15:33:29.198Z,100225.97
2022-08-17T15:35:59.235Z,100219.56
2022-08-17T15:38:28.039Z,100210.69
2022-08-17T15:40:57.613Z,100206.25
2022-08-17T15:43:32.411Z,100213.66
2022-08-17T15:46:03.662Z,100207.75
2022-08-17T15:48:42.049Z,100207.41
2022-08-17T15:51:13.112Z,100205.16
2022-08-17T15:53:42.120Z,100200.81
2022-08-17T15:56:10.085Z,100212.63
2022-08-17T15:58:40.110Z,100207.88
2022-08-17T16:01:16.534Z,100210.94
2022-08-17T16:04:03.936Z,100206.97
2022-08-17T16:06:34.716Z,100219.56
2022-08-17T16:09:02.637Z,100218.41
2022-08-17T16:11:30.467Z,100205.63
2022-08-17T16:13:58.228Z,100234.03
2022-08-17T16:16:28.933Z,100229.69
2022-08-17T16:18:58.461Z,100229.84
2022-08-17T16:21:27.523Z,100234.63
2022-08-17T16:23:58.452Z,100203.38
2022-08-17T16:26:27.254Z,100233.78
2022-08-17T16:28:55.461Z,100223.75
2022-08-17T16:31:23.360Z,100238.09
2022-08-17T16:34:16.162Z,100198.31
2022-08-17T16:36:41.445Z,100241.06
2022-08-17T16:39:23.815Z,100233.66
2022-08-17T16:41:51.636Z,100233.41
2022-08-17T16:44:22.268Z,100241.88
2022-08-17T16:46:50.301Z,100235.41
2022-08-17T16:49:36.025Z,100229.00
2022-08-17T16:52:07.559Z,100225.06
2022-08-17T16:54:36.298Z,100220.47
2022-08-17T16:57:05.517Z,100219.16
2022-08-17T16:59:42.184Z,100216.19
2022-08-17T17:02:14.039Z,100223.59
2022-08-17T17:04:49.218Z,100191.97
2022-08-17T17:07:52.014Z,100218.63
2022-08-17T17:10:23.674Z,100223.75
2022-08-17T17:13:02.187Z,100233.28
2022-08-17T17:15:46.160Z,100234.88
2022-08-17T17:18:15.383Z,100222.63
2022-08-17T17:20:50.702Z,100219.72
2022-08-17T17:23:33.177Z,100236.91
2022-08-17T17:26:09.436Z,100227.66
2022-08-17T17:28:44.116Z,100240.13
2022-08-17T17:31:15.722Z,100216.97
2022-08-17T17:33:48.235Z,100249.69
2022-08-17T17:36:25.149Z,100249.69
2022-08-17T17:38:55.194Z,100247.09
2022-08-17T17:41:29.202Z,100241.97
2022-08-17T17:44:05.342Z,100249.28
2022-08-17T17:46:39.370Z,100259.03
2022-08-17T17:49:09.385Z,100264.81
2022-08-17T17:52:06.606Z,100265.88
2022-08-17T17:54:50.218Z,100268.00
2022-08-17T17:57:25.595Z,100268.00
2022-08-17T18:00:02.563Z,100257.91
2022-08-17T18:02:55.651Z,100257.44
2022-08-17T18:05:47.710Z,100262.41
2022-08-17T18:08:32.058Z,100262.28
2022-08-17T18:11:13.153Z,100259.56
2022-08-17T18:13:55.718Z,100262.84
2022-08-17T18:16:23.836Z,100254.59
2022-08-17T18:18:53.660Z,100211.47
2022-08-17T18:21:24.103Z,100258.63
2022-08-17T18:24:00.850Z,100268.03
2022-08-17T18:26:39.531Z,100268.25
2022-08-17T18:29:22.261Z,100243.81
2022-08-17T18:32:10.755Z,100259.44
2022-08-17T18:34:47.394Z,100217.72
2022-08-17T18:37:32.882Z,100258.16
2022-08-17T18:40:24.728Z,100270.59
2022-08-17T18:43:06.825Z,100259.16
2022-08-17T18:45:39.580Z,100239.50
2022-08-17T18:48:25.579Z,100290.59
2022-08-17T18:51:00.850Z,100300.66
2022-08-17T18:53:34.619Z,100299.69
2022-08-17T18:56:25.899Z,100311.22
2022-08-17T18:59:06.016Z,100272.81
2022-08-17T19:01:54.662Z,100299.69
2022-08-17T19:04:37.702Z,100248.53
2022-08-17T19:07:13.379Z,100245.81
2022-08-17T19:09:46.482Z,100326.94
2022-08-17T19:12:27.411Z,100314.22
2022-08-17T19:14:59.990Z,100320.16
2022-08-17T19:17:36.435Z,100326.59
2022-08-17T19:20:11.703Z,100316.53
2022-08-17T19:23:08.248Z,100326.28
2022-08-17T19:25:41.460Z,100326.41
2022-08-17T19:28:22.280Z,100325.13
2022-08-17T19:30:55.698Z,100284.81
2022-08-17T19:33:23.966Z,100330.97
2022-08-17T19:36:00.217Z,100336.00
2022-08-17T19:38:40.920Z,100334.94
2022-08-17T19:41:17.129Z,100310.44
2022-08-17T19:44:11.182Z,100312.47
2022-08-17T19:46:50.062Z,100315.41
2022-08-17T19:49:33.385Z,100336.09
2022-08-17T19:52:24.086Z,100343.38
2022-08-17T19:54:58.848Z,100342.84
2022-08-17T19:57:37.785Z,100332.47
2022-08-17T20:00:11.994Z,100341.19
2022-08-17T20:02:49.101Z,100338.91
2022-08-17T20:05:22.381Z,100340.78
2022-08-17T20:07:55.417Z,100340.88
2022-08-17T20:10:32.272Z,100344.63
2022-08-17T20:13:04.544Z,100344.06
2022-08-17T20:15:37.722Z,100338.47
2022-08-17T20:18:13.446Z,100308.31
2022-08-17T20:20:48.333Z,100297.69
2022-08-17T20:23:38.997Z,100333.38
2022-08-17T20:26:18.943Z,100344.00
2022-08-17T20:29:37.715Z,100344.00
2022-08-17T20:32:20.092Z,100232.28
2022-08-17T20:34:48.972Z,100331.53
2022-08-17T20:37:32.045Z,100360.06
2022-08-17T20:40:20.482Z,100361.66
2022-08-17T20:42:48.613Z,100364.84
2022-08-17T20:45:57.663Z,100361.53
2022-08-17T20:48:37.863Z,100363.63
2022-08-17T20:51:18.721Z,100356.38
2022-08-17T20:54:35.405Z,100355.16
2022-08-17T20:57:13.873Z,100358.38
2022-08-17T21:00:16.470Z,100350.28
2022-08-17T21:02:46.164Z,100365.84
2022-08-17T21:05:59.786Z,100361.94
2022-08-17T21:08:30.681Z,100347.91
2022-08-17T21:11:00.087Z,100355.09
2022-08-17T21:13:53.117Z,100356.41
2022-08-17T21:16:33.703Z,100342.31
2022-08-17T21:19:22.688Z,100325.94
2022-08-17T21:22:06.314Z,100363.91
2022-08-17T21:24:46.390Z,100353.19
2022-08-17T21:27:30.112Z,100326.78
2022-08-17T21:30:22.952Z,100364.63
2022-08-17T21:33:26.762Z,100346.69
2022-08-17T21:36:11.344Z,100354.47
2022-08-17T21:38:51.546Z,100344.19
2022-08-17T21:41:23.064Z,100368.59
2022-08-17T21:43:54.823Z,100362.84
2022-08-17T21:46:28.704Z,100366.16
2022-08-17T21:49:03.031Z,100376.31
2022-08-17T21:51:45.019Z,100379.66
2022-08-17T21:54:26.988Z,100381.97
2022-08-17T21:56:55.322Z,100384.66
2022-08-17T21:59:28.401Z,100383.44
2022-08-17T22:01:58.497Z,100386.59
2022-08-17T22:04:30.651Z,100397.78
2022-08-17T22:07:01.131Z,100394.28
2022-08-17T22:09:32.986Z,100400.69
2022-08-17T22:12:04.391Z,100392.44
2022-08-17T22:14:53.044Z,100392.50
2022-08-17T22:17:24.046Z,100383.19
2022-08-17T22:19:54.647Z,100371.56
2022-08-17T22:22:27.351Z,100377.19
2022-08-17T22:24:58.083Z,100371.56
2022-08-17T22:27:52.109Z,100387.94
2022-08-17T22:30:28.515Z,100388.53
2022-08-17T22:32:57.573Z,100399.06
2022-08-17T22:35:41.503Z,100393.94
2022-08-17T22:38:34.119Z,100397.47
2022-08-17T22:41:36.583Z,100404.13
2022-08-17T22:44:15.019Z,100398.53
2022-08-17T22:46:54.404Z,100388.84
2022-08-17T22:49:26.737Z,100388.41
2022-08-17T22:52:03.644Z,100397.09
2022-08-17T22:54:49.331Z,100395.88
2022-08-17T22:57:52.370Z,100392.16
2022-08-17T23:00:32.740Z,100404.16
2022-08-17T23:03:13.284Z,100404.84
2022-08-17T23:05:45.017Z,100406.91
2022-08-17T23:08:13.635Z,100407.94
2022-08-17T23:10:42.375Z,100416.22
2022-08-17T23:13:13.292Z,100409.81
2022-08-17T23:15:42.063Z,100403.59
2022-08-17T23:18:09.898Z,100406.31
2022-08-17T23:20:40.060Z,100410.84
2022-08-17T23:23:09.011Z,100407.13
2022-08-17T23:25:37.581Z,100413.75
2022-08-17T23:28:08.222Z,100415.81
2022-08-17T23:30:41.284Z,100415.81
2022-08-17T23:33:16.760Z,100417.53
2022-08-17T23:35:44.578Z,100417.09
2022-08-17T23:38:14.196Z,100418.97
2022-08-17T23:40:42.087Z,100436.56
2022-08-17T23:43:17.650Z,100428.50
2022-08-17T23:45:57.336Z,100433.88
2022-08-17T23:48:35.291Z,100434.09
2022-08-17T23:51:06.024Z,100432.84
2022-08-17T23:53:36.668Z,100434.09
2022-08-17T23:56:10.201Z,100434.91
2022-08-17T23:58:39.420Z,100439.69
